Time;durP1;ratioP1;P1;durP2;ratioP2;P2;SDS_P1;SDS_P2;PMS_P1;PMS_P2;Temp;Humidity;BMP_temperature;BMP_pressure;BME280_temperature;BME280_humidity;BME280_pressure;Samples;Min_cycle;Max_cycle;Signal;HPM_P1;HPM_P2
2022/02/03 00:01:18;;;;;;;31.50;18.57;;;6.60;99.90;;;;;;5041236;28;20599;-75
2022/02/03 00:04:10;;;;;;;34.10;20.17;;;6.70;99.90;;;;;;5045350;28;20436;-75
2022/02/03 00:07:02;;;;;;;38.40;19.17;;;6.70;99.90;;;;;;5045863;28;20455;-75
2022/02/03 00:10:22;;;;;;;30.53;19.03;;;6.70;99.90;;;;;;5050511;28;20435;-75
2022/02/03 00:16:43;;;;;;;32.80;18.53;;;6.80;99.90;;;;;;5049974;28;20467;-76
2022/02/03 00:22:52;;;;;;;27.05;18.40;;;6.80;99.90;;;;;;5032265;28;20236;-76
2022/02/03 00:25:42;;;;;;;33.93;20.10;;;6.80;99.90;;;;;;5048761;28;20247;-76
2022/02/03 00:28:33;;;;;;;30.67;18.93;;;6.80;99.90;;;;;;5043262;28;21009;-76
2022/02/03 00:31:39;;;;;;;26.83;18.30;;;6.80;99.90;;;;;;5047131;28;20539;-76
2022/02/03 00:34:35;;;;;;;33.90;20.40;;;6.70;99.90;;;;;;5046351;28;20452;-76
2022/02/03 00:37:34;;;;;;;35.78;21.20;;;6.70;99.90;;;;;;5045725;28;20858;-75
2022/02/03 00:49:40;;;;;;;39.03;21.70;;;6.70;99.90;;;;;;5051783;28;20804;-76
2022/02/03 00:52:27;;;;;;;37.43;19.67;;;6.70;99.90;;;;;;5047420;28;20443;-76
2022/02/03 00:55:13;;;;;;;38.23;22.17;;;6.70;99.90;;;;;;5050824;28;20423;-75
2022/02/03 00:58:02;;;;;;;45.70;21.60;;;6.70;99.90;;;;;;5049449;28;20456;-76
2022/02/03 01:00:51;;;;;;;33.07;20.60;;;6.80;99.90;;;;;;5047501;28;20825;-76
2022/02/03 01:03:38;;;;;;;33.73;20.50;;;6.80;99.90;;;;;;5046132;28;20835;-76
2022/02/03 01:06:28;;;;;;;39.77;20.63;;;6.80;99.90;;;;;;5041235;28;20525;-75
2022/02/03 01:09:17;;;;;;;36.85;20.25;;;6.80;99.90;;;;;;5050003;28;20425;-76
2022/02/03 01:12:11;;;;;;;34.40;20.53;;;6.70;99.90;;;;;;5050705;28;20678;-76
2022/02/03 01:15:11;;;;;;;37.55;21.10;;;6.70;99.90;;;;;;5047148;28;20443;-76
2022/02/03 01:18:18;;;;;;;43.03;19.40;;;6.80;99.90;;;;;;5047162;28;20670;-76
2022/02/03 01:21:28;;;;;;;43.30;21.00;;;6.80;99.90;;;;;;5045550;28;20576;-76
2022/02/03 01:33:42;;;;;;;29.53;16.10;;;6.70;99.90;;;;;;5051249;28;20423;-76
2022/02/03 01:37:10;;;;;;;34.20;19.57;;;6.70;99.90;;;;;;5049087;28;20574;-75
2022/02/03 01:43:27;;;;;;;37.10;18.43;;;6.70;99.90;;;;;;5046528;28;20505;-76
2022/02/03 01:46:26;;;;;;;30.30;18.50;;;6.70;99.90;;;;;;5045453;28;20474;-76
2022/02/03 01:49:17;;;;;;;39.73;19.87;;;6.80;99.90;;;;;;5046584;28;20479;-76
2022/02/03 01:52:08;;;;;;;31.90;18.57;;;6.80;99.90;;;;;;5049483;28;20768;-76
2022/02/03 01:54:57;;;;;;;34.03;19.13;;;6.80;99.90;;;;;;5049030;28;20414;-76
2022/02/03 01:57:54;;;;;;;32.90;18.47;;;6.80;99.90;;;;;;5043102;28;20773;-76
2022/02/03 02:00:42;;;;;;;32.50;18.90;;;6.80;99.90;;;;;;5046572;28;20419;-76
2022/02/03 02:03:38;;;;;;;26.70;17.80;;;6.80;99.90;;;;;;5048103;28;20983;-76
2022/02/03 02:06:39;;;;;;;27.70;18.67;;;6.80;99.90;;;;;;5043247;28;21010;-76
2022/02/03 02:09:39;;;;;;;29.17;19.43;;;6.80;99.90;;;;;;5040364;28;20431;-76
2022/02/03 02:12:45;;;;;;;28.23;19.10;;;6.70;99.90;;;;;;5043592;28;20587;-76
2022/02/03 02:19:04;;;;;;;40.77;21.20;;;6.70;99.90;;;;;;5033657;28;20256;-76
2022/02/03 02:44:07;;;;;;;31.77;20.87;;;6.80;99.90;;;;;;4996885;28;20461;-76
2022/02/03 02:46:55;;;;;;;30.60;21.57;;;6.80;99.90;;;;;;4987742;28;20503;-76
2022/02/03 02:49:51;;;;;;;34.47;22.10;;;6.90;99.90;;;;;;5038571;28;21007;-76
2022/02/03 02:52:47;;;;;;;28.20;21.60;;;6.90;99.90;;;;;;5042237;28;20421;-76
2022/02/03 02:55:50;;;;;;;30.20;21.10;;;6.90;99.90;;;;;;5046741;28;20440;-76
2022/02/03 02:58:59;;;;;;;33.70;22.77;;;6.90;99.90;;;;;;5044771;28;20435;-76
2022/02/03 03:29:59;;;;;;;28.17;19.50;;;6.90;99.90;;;;;;5038203;28;20508;-76
2022/02/03 03:33:01;;;;;;;25.10;19.67;;;6.90;99.90;;;;;;5042343;28;20439;-76
2022/02/03 03:35:51;;;;;;;32.47;20.67;;;6.90;99.90;;;;;;5040716;28;20447;-76
2022/02/03 03:38:41;;;;;;;28.80;20.00;;;6.90;99.90;;;;;;5039272;28;20543;-76
2022/02/03 03:41:29;;;;;;;30.37;19.57;;;6.90;99.90;;;;;;5049482;28;20459;-76
2022/02/03 03:44:19;;;;;;;34.60;19.17;;;7.00;99.90;;;;;;5049768;28;20817;-76
2022/02/03 03:47:06;;;;;;;27.00;19.33;;;7.00;99.90;;;;;;5046718;28;20816;-75
2022/02/03 03:49:58;;;;;;;31.90;20.63;;;7.00;99.90;;;;;;5048822;28;20704;-76
2022/02/03 03:52:50;;;;;;;37.43;21.03;;;7.00;99.90;;;;;;5044685;28;20510;-76
2022/02/03 03:55:48;;;;;;;29.30;21.97;;;7.00;99.90;;;;;;5043858;28;20969;-76
2022/02/03 03:59:02;;;;;;;27.55;19.10;;;7.00;99.90;;;;;;5047435;28;20467;-76
2022/02/03 04:30:43;;;;;;;21.83;16.63;;;7.10;99.90;;;;;;5076410;28;20510;-71
2022/02/03 04:33:51;;;;;;;18.83;15.90;;;7.20;99.90;;;;;;5072913;28;20936;-71
2022/02/03 04:37:28;;;;;;;18.20;14.90;;;7.30;99.90;;;;;;5074055;28;20471;-71
2022/02/03 04:57:50;;;;;;;19.07;13.90;;;8.10;99.90;;;;;;5071177;28;20476;-72
2022/02/03 05:01:20;;;;;;;18.40;13.57;;;8.20;99.90;;;;;;5077326;28;20908;-72
2022/02/03 05:04:40;;;;;;;22.97;13.47;;;8.20;99.90;;;;;;5071113;28;20417;-71
2022/02/03 05:08:01;;;;;;;15.93;13.53;;;8.20;99.90;;;;;;5077230;28;21113;-71
2022/02/03 05:11:12;;;;;;;17.73;14.03;;;8.30;99.90;;;;;;5045056;28;20442;-71
2022/02/03 05:14:38;;;;;;;19.47;16.73;;;8.30;99.90;;;;;;5067662;28;20629;-72
2022/02/03 05:21:12;;;;;;;18.97;15.07;;;8.40;99.90;;;;;;5051435;28;20512;-72
2022/02/03 05:24:37;;;;;;;20.73;15.90;;;8.40;99.90;;;;;;5068084;28;20416;-71
2022/02/03 05:34:52;;;;;;;19.83;16.70;;;8.40;99.90;;;;;;5073245;28;20493;-71
2022/02/03 05:44:18;;;;;;;22.40;14.57;;;8.40;99.90;;;;;;5069261;28;20503;-71
2022/02/03 05:47:23;;;;;;;19.43;14.53;;;8.40;99.90;;;;;;5074914;28;20458;-72
2022/02/03 05:50:28;;;;;;;19.50;14.13;;;8.40;99.90;;;;;;5070128;28;20562;-71
2022/02/03 06:05:48;;;;;;;20.90;15.20;;;8.40;99.90;;;;;;5071446;28;20470;-71
2022/02/03 06:08:51;;;;;;;18.40;14.00;;;8.40;99.90;;;;;;5077638;28;20443;-71
2022/02/03 06:15:00;;;;;;;17.73;12.80;;;8.40;99.90;;;;;;4994324;28;20464;-72
2022/02/03 06:20:41;;;;;;;19.10;13.87;;;8.50;99.90;;;;;;5075116;28;20463;-71
2022/02/03 06:21:28;;;;;;;19.43;12.83;;;8.40;99.90;;;;;;5067549;28;21020;-71
2022/02/03 06:24:18;;;;;;;14.70;12.20;;;8.50;99.90;;;;;;5068913;28;20542;-72
2022/02/03 06:30:10;;;;;;;19.83;12.97;;;8.50;99.90;;;;;;5069989;28;20600;-71
2022/02/03 06:32:56;;;;;;;17.80;12.23;;;8.50;99.90;;;;;;5070807;28;20438;-72
2022/02/03 06:35:41;;;;;;;15.90;11.10;;;8.50;99.90;;;;;;5072239;28;20426;-72
2022/02/03 06:38:27;;;;;;;13.60;10.43;;;8.50;99.90;;;;;;5070951;28;20477;-71
2022/02/03 06:41:13;;;;;;;20.87;10.77;;;8.50;99.90;;;;;;5072721;28;20454;-71
2022/02/03 06:44:00;;;;;;;17.33;10.90;;;8.50;99.90;;;;;;5070294;28;20525;-71
2022/02/03 06:46:49;;;;;;;26.90;11.50;;;8.60;99.90;;;;;;5074166;28;20459;-71
2022/02/03 06:49:45;;;;;;;15.47;10.53;;;8.50;99.90;;;;;;5067715;28;20401;-71
2022/02/03 06:52:46;;;;;;;15.50;10.30;;;8.50;99.90;;;;;;5069439;28;20443;-71
2022/02/03 06:55:43;;;;;;;15.23;9.60;;;8.50;99.90;;;;;;5072458;28;20438;-71
2022/02/03 06:58:35;;;;;;;16.03;11.00;;;8.50;99.90;;;;;;5070779;28;20469;-71
2022/02/03 07:01:27;;;;;;;15.97;10.37;;;8.50;99.90;;;;;;5069548;28;20397;-71
2022/02/03 07:04:18;;;;;;;15.90;10.20;;;8.50;99.90;;;;;;5066148;28;20437;-71
2022/02/03 07:07:04;;;;;;;13.87;11.10;;;8.50;99.90;;;;;;5066672;28;20590;-71
2022/02/03 07:09:51;;;;;;;18.03;10.00;;;8.50;99.90;;;;;;5063237;28;20491;-70
2022/02/03 07:12:38;;;;;;;13.63;10.03;;;8.50;99.90;;;;;;5079668;28;20996;-71
2022/02/03 07:15:23;;;;;;;16.10;11.40;;;8.50;99.90;;;;;;5081129;28;20921;-70
2022/02/03 07:18:10;;;;;;;13.80;10.77;;;8.50;99.90;;;;;;5072801;28;20499;-70
2022/02/03 07:20:56;;;;;;;11.80;9.40;;;8.50;99.90;;;;;;5076370;28;20473;-70
2022/02/03 07:23:42;;;;;;;13.30;11.63;;;8.50;99.90;;;;;;5061138;28;20990;-70
2022/02/03 07:26:27;;;;;;;22.50;16.13;;;8.60;99.90;;;;;;5070022;28;20543;-71
2022/02/03 07:29:13;;;;;;;14.37;11.30;;;8.60;99.90;;;;;;5068086;28;20427;-71
2022/02/03 07:31:58;;;;;;;12.30;9.20;;;8.60;99.90;;;;;;5075378;28;21027;-71
2022/02/03 07:34:46;;;;;;;27.90;17.70;;;8.60;99.90;;;;;;5076265;28;20532;-71
2022/02/03 07:37:31;;;;;;;13.67;10.30;;;8.60;99.90;;;;;;5068070;28;20482;-71
2022/02/03 07:40:18;;;;;;;13.07;8.47;;;8.60;99.90;;;;;;5071490;28;20442;-71
2022/02/03 07:43:09;;;;;;;12.10;8.10;;;8.60;99.90;;;;;;5067226;28;20878;-71
2022/02/03 07:45:56;;;;;;;13.40;7.90;;;8.60;99.90;;;;;;5069082;28;20450;-71
2022/02/03 07:48:42;;;;;;;11.03;7.83;;;8.60;99.90;;;;;;5070064;28;20768;-71
2022/02/03 07:51:29;;;;;;;20.40;12.23;;;8.60;99.90;;;;;;5071011;28;20430;-70
2022/02/03 07:54:15;;;;;;;22.30;11.07;;;8.60;99.90;;;;;;5075704;28;20478;-71
2022/02/03 07:57:00;;;;;;;14.27;8.73;;;8.60;99.90;;;;;;5066805;28;20851;-71
2022/02/03 07:59:46;;;;;;;13.40;8.53;;;8.60;99.90;;;;;;5075279;28;20426;-71
2022/02/03 08:02:32;;;;;;;12.93;6.77;;;8.60;99.90;;;;;;5067123;28;20430;-71
2022/02/03 08:05:20;;;;;;;10.40;7.77;;;8.60;99.90;;;;;;5072019;28;20452;-71
2022/02/03 08:08:15;;;;;;;11.30;7.60;;;8.60;99.90;;;;;;5063618;28;20417;-71
2022/02/03 08:11:05;;;;;;;10.13;6.80;;;8.70;99.90;;;;;;5063075;28;20436;-71
2022/02/03 08:13:55;;;;;;;22.70;10.93;;;8.70;99.90;;;;;;5060207;28;20430;-71
2022/02/03 08:16:45;;;;;;;13.50;9.07;;;8.70;99.90;;;;;;5062593;28;20444;-71
2022/02/03 08:19:38;;;;;;;20.10;9.90;;;8.70;99.90;;;;;;5069455;28;20943;-71
2022/02/03 08:22:27;;;;;;;12.63;7.37;;;8.70;99.90;;;;;;5068006;28;20423;-71
2022/02/03 08:25:17;;;;;;;16.80;10.00;;;8.80;99.90;;;;;;5070183;28;20406;-71
2022/02/03 08:28:29;;;;;;;9.50;6.73;;;8.80;99.90;;;;;;5066211;28;20432;-71
2022/02/03 08:31:21;;;;;;;13.93;8.00;;;8.80;99.90;;;;;;5071367;28;20419;-71
2022/02/03 08:34:11;;;;;;;7.40;4.83;;;8.80;99.90;;;;;;5075996;28;20439;-71
2022/02/03 08:36:59;;;;;;;9.23;6.63;;;8.80;99.90;;;;;;5068211;28;20602;-71
2022/02/03 08:39:53;;;;;;;9.73;5.73;;;8.80;99.90;;;;;;5073095;28;20389;-71
2022/02/03 08:42:40;;;;;;;7.40;4.83;;;8.80;99.90;;;;;;5073040;28;20446;-71
2022/02/03 08:45:26;;;;;;;7.07;5.17;;;8.80;99.90;;;;;;5083318;28;20416;-71
2022/02/03 08:48:13;;;;;;;7.70;5.37;;;8.80;99.90;;;;;;5078922;28;20458;-71
2022/02/03 08:50:59;;;;;;;11.07;5.40;;;8.80;99.90;;;;;;5078558;28;20822;-71
2022/02/03 08:53:48;;;;;;;9.53;6.10;;;8.90;99.90;;;;;;5074910;28;20535;-70
2022/02/03 08:56:43;;;;;;;16.07;8.30;;;8.90;99.90;;;;;;5075469;28;20468;-70
2022/02/03 09:36:37;;;;;;;11.47;4.10;;;9.30;99.90;;;;;;5074568;28;20461;-70
2022/02/03 09:39:38;;;;;;;5.13;3.93;;;9.30;99.90;;;;;;5079185;28;20437;-70
2022/02/03 09:52:05;;;;;;;4.40;3.60;;;9.20;99.90;;;;;;5071319;28;20426;-70
2022/02/03 09:55:07;;;;;;;5.70;3.47;;;9.10;99.90;;;;;;5070260;28;20592;-70
2022/02/03 09:57:55;;;;;;;4.80;3.40;;;9.10;99.90;;;;;;5070180;28;20474;-70
2022/02/03 10:00:47;;;;;;;7.67;3.40;;;9.20;99.90;;;;;;5069460;28;20486;-70
2022/02/03 10:03:38;;;;;;;4.50;3.50;;;9.20;99.90;;;;;;5070104;28;20420;-70
2022/02/03 10:06:25;;;;;;;5.30;3.93;;;9.20;99.90;;;;;;5072849;28;20584;-70
2022/02/03 10:09:11;;;;;;;4.50;3.13;;;9.20;99.90;;;;;;5063938;28;20806;-71
2022/02/03 10:12:00;;;;;;;4.27;3.00;;;9.20;99.90;;;;;;5069927;28;20430;-71
2022/02/03 10:14:48;;;;;;;3.50;2.93;;;9.20;99.90;;;;;;5071683;28;21025;-71
2022/02/03 10:17:37;;;;;;;4.83;3.07;;;9.30;99.90;;;;;;5080772;28;20526;-70
2022/02/03 10:20:28;;;;;;;3.67;2.40;;;9.30;99.90;;;;;;5065930;28;20437;-70
2022/02/03 10:23:19;;;;;;;3.63;2.50;;;9.30;99.90;;;;;;5072840;28;20616;-71
2022/02/03 10:26:09;;;;;;;3.23;2.43;;;9.30;99.90;;;;;;5073587;28;20564;-71
2022/02/03 10:28:57;;;;;;;2.80;2.30;;;9.40;99.90;;;;;;5064739;28;20497;-71
2022/02/03 10:31:44;;;;;;;8.57;4.60;;;9.40;99.90;;;;;;5066624;28;20809;-72
2022/02/03 10:34:33;;;;;;;6.90;3.60;;;9.40;99.90;;;;;;5073727;28;20450;-71
2022/02/03 10:37:39;;;;;;;4.33;2.50;;;9.40;99.90;;;;;;5072167;28;21005;-71
2022/02/03 10:40:47;;;;;;;4.93;2.47;;;9.50;99.90;;;;;;5070665;28;20962;-70
2022/02/03 10:46:57;;;;;;;4.30;2.90;;;9.60;99.90;;;;;;5054051;28;20548;-71
2022/02/03 10:53:07;;;;;;;5.00;3.53;;;9.70;99.90;;;;;;5065221;28;20438;-71
2022/02/03 10:56:16;;;;;;;4.60;3.30;;;9.60;99.90;;;;;;5068870;28;20461;-71
2022/02/03 11:02:33;;;;;;;6.00;3.70;;;9.60;99.90;;;;;;5048786;28;20483;-71
2022/02/03 11:08:30;;;;;;;3.53;2.80;;;9.60;99.90;;;;;;5058873;28;21092;-72
2022/02/03 11:11:23;;;;;;;4.83;3.27;;;9.60;99.90;;;;;;5059562;28;20453;-72
2022/02/03 11:14:11;;;;;;;6.17;3.50;;;9.60;99.90;;;;;;5062722;28;20450;-71
2022/02/03 11:16:58;;;;;;;6.93;3.17;;;9.60;99.90;;;;;;5059683;28;20466;-71
2022/02/03 11:19:48;;;;;;;5.13;3.43;;;9.70;99.90;;;;;;5062839;28;20481;-71
2022/02/03 11:22:47;;;;;;;4.80;3.67;;;9.70;99.90;;;;;;5063056;28;20960;-71
2022/02/03 11:25:48;;;;;;;10.63;3.80;;;9.70;99.90;;;;;;5075369;28;20419;-71
2022/02/03 11:38:33;;;;;;;4.50;3.50;;;9.60;99.90;;;;;;5061194;28;20474;-71
2022/02/03 11:41:42;;;;;;;5.40;4.00;;;9.60;99.90;;;;;;5069428;28;20462;-71
2022/02/03 11:45:24;;;;;;;8.93;5.27;;;9.50;99.90;;;;;;5070951;28;20411;-71
2022/02/03 11:48:24;;;;;;;7.13;4.60;;;9.50;99.90;;;;;;5067289;28;20467;-71
2022/02/03 11:51:44;;;;;;;9.80;6.00;;;9.50;99.90;;;;;;5074009;28;20423;-71
2022/02/03 12:01:03;;;;;;;5.63;3.20;;;9.60;99.90;;;;;;5095545;27;20568;-69
2022/02/03 12:04:21;;;;;;;3.60;2.87;;;9.70;99.90;;;;;;5085071;28;20469;-69
2022/02/03 12:07:48;;;;;;;6.93;3.40;;;9.80;99.90;;;;;;5074653;28;20902;-69
2022/02/03 12:14:00;;;;;;;3.07;2.20;;;9.80;99.90;;;;;;5060481;28;20504;-71
2022/02/03 12:16:58;;;;;;;4.77;3.33;;;9.80;99.90;;;;;;5056042;28;20466;-71
2022/02/03 12:20:09;;;;;;;4.60;3.33;;;9.80;99.90;;;;;;5068635;28;20525;-71
2022/02/03 12:26:08;;;;;;;6.53;4.07;;;9.90;99.90;;;;;;5059459;28;20470;-71
2022/02/03 12:28:57;;;;;;;10.50;5.77;;;10.10;99.90;;;;;;5060774;28;20927;-71
2022/02/03 12:31:59;;;;;;;4.00;3.00;;;10.20;99.90;;;;;;5059731;28;21003;-71
2022/02/03 12:38:17;;;;;;;5.70;3.33;;;10.20;99.90;;;;;;5062223;28;20458;-71
2022/02/03 12:41:08;;;;;;;6.40;3.63;;;10.20;99.90;;;;;;5054960;28;20487;-71
2022/02/03 12:43:58;;;;;;;5.53;3.17;;;10.20;99.90;;;;;;5050952;28;20590;-71
2022/02/03 12:46:43;;;;;;;4.87;3.40;;;10.20;99.90;;;;;;5051957;28;20821;-71
2022/02/03 12:49:30;;;;;;;4.70;3.27;;;10.10;99.90;;;;;;5062684;28;20562;-71
2022/02/03 12:52:26;;;;;;;5.70;3.37;;;10.10;99.90;;;;;;5064208;28;20575;-71
2022/02/03 12:55:24;;;;;;;5.60;3.47;;;10.10;99.90;;;;;;5058615;28;20580;-72
2022/02/03 12:58:16;;;;;;;9.20;4.50;;;10.10;99.90;;;;;;5057687;28;20440;-71
2022/02/03 13:01:08;;;;;;;4.97;3.20;;;10.10;99.90;;;;;;5053867;28;20778;-71
2022/02/03 13:03:55;;;;;;;4.37;3.23;;;10.10;99.90;;;;;;5058667;28;20966;-71
2022/02/03 13:06:45;;;;;;;6.13;3.13;;;10.10;99.90;;;;;;5055930;28;20895;-71
2022/02/03 13:09:39;;;;;;;5.50;3.60;;;9.90;99.90;;;;;;5053836;28;20440;-71
2022/02/03 13:12:31;;;;;;;5.13;3.60;;;9.90;99.90;;;;;;5050014;28;20871;-72
2022/02/03 13:15:35;;;;;;;4.07;2.77;;;10.00;99.90;;;;;;5045784;28;20779;-71
2022/02/03 13:18:29;;;;;;;3.10;2.40;;;10.00;99.90;;;;;;5048987;28;20468;-71
2022/02/03 13:21:29;;;;;;;4.50;2.80;;;9.90;99.90;;;;;;5047839;28;20454;-71
2022/02/03 13:24:37;;;;;;;3.10;2.50;;;9.90;99.90;;;;;;5051256;28;20449;-71
2022/02/03 13:27:32;;;;;;;3.90;2.93;;;9.90;99.90;;;;;;5049158;28;20468;-71
2022/02/03 13:30:44;;;;;;;5.10;2.67;;;9.90;99.90;;;;;;5045759;28;20559;-71
2022/02/03 13:33:37;;;;;;;5.50;2.67;;;9.90;99.90;;;;;;5052076;28;20431;-71
2022/02/03 13:36:32;;;;;;;5.10;3.10;;;10.00;99.90;;;;;;5044840;28;20448;-71
2022/02/03 13:39:25;;;;;;;5.10;2.63;;;10.00;99.90;;;;;;5045701;28;20578;-71
2022/02/03 13:42:12;;;;;;;3.43;2.87;;;9.90;99.90;;;;;;5048914;28;20529;-71
2022/02/03 13:45:05;;;;;;;3.73;2.60;;;9.90;99.90;;;;;;5048552;28;20447;-71
2022/02/03 13:47:51;;;;;;;3.67;2.57;;;10.00;99.90;;;;;;5042008;28;20469;-71
2022/02/03 13:50:37;;;;;;;4.73;3.20;;;10.00;99.90;;;;;;5046072;28;20446;-71
2022/02/03 13:53:31;;;;;;;3.70;2.77;;;10.00;99.90;;;;;;5048183;28;20421;-71
2022/02/03 14:15:14;;;;;;;4.27;2.80;;;9.90;99.90;;;;;;5046777;28;20859;-71
2022/02/03 14:21:06;;;;;;;4.20;2.83;;;9.90;99.90;;;;;;5048181;28;20588;-70
2022/02/03 14:27:13;;;;;;;5.97;4.10;;;9.80;99.90;;;;;;5042019;28;20465;-70
2022/02/03 14:30:04;;;;;;;4.10;3.00;;;9.90;99.90;;;;;;5045445;28;20441;-71
2022/02/03 14:32:55;;;;;;;5.40;3.90;;;9.90;99.90;;;;;;5046173;28;20454;-71
2022/02/03 14:35:44;;;;;;;3.80;2.80;;;9.90;99.90;;;;;;5043962;28;20886;-71
2022/02/03 14:38:33;;;;;;;3.47;2.83;;;9.90;99.90;;;;;;5049790;28;20461;-71
2022/02/03 14:41:24;;;;;;;4.27;3.23;;;9.90;99.90;;;;;;5045789;28;20596;-71
2022/02/03 14:44:10;;;;;;;5.03;3.53;;;9.90;99.90;;;;;;5046838;28;20449;-72
2022/02/03 14:46:55;;;;;;;3.80;2.70;;;9.90;99.90;;;;;;5049542;28;20459;-69
2022/02/03 14:49:43;;;;;;;3.70;2.90;;;9.90;99.90;;;;;;5041746;28;20446;-69
2022/02/03 14:52:33;;;;;;;3.60;2.70;;;9.90;99.90;;;;;;5051113;28;20441;-70
2022/02/03 14:58:24;;;;;;;6.63;3.13;;;9.90;99.90;;;;;;5046439;28;20845;-69
2022/02/03 15:01:13;;;;;;;4.20;3.20;;;9.90;99.90;;;;;;5048038;28;20466;-69
2022/02/03 15:03:59;;;;;;;7.00;3.80;;;9.80;99.90;;;;;;5045502;28;20504;-69
2022/02/03 15:06:55;;;;;;;3.60;2.80;;;9.90;99.90;;;;;;5048538;28;20464;-69
2022/02/03 15:10:01;;;;;;;5.30;3.63;;;9.80;99.90;;;;;;5045829;28;20643;-69
2022/02/03 15:13:00;;;;;;;5.20;4.10;;;9.80;99.90;;;;;;5050359;28;20452;-69
2022/02/03 15:15:46;;;;;;;6.67;3.47;;;9.80;99.90;;;;;;5046540;28;20441;-69
2022/02/03 15:18:32;;;;;;;4.80;3.40;;;9.90;99.90;;;;;;5050919;28;20481;-69
2022/02/03 15:21:17;;;;;;;6.50;4.20;;;9.90;99.90;;;;;;5049697;28;20971;-69
2022/02/03 15:24:03;;;;;;;4.30;3.47;;;9.80;99.90;;;;;;5042137;28;20535;-69
2022/02/03 15:26:50;;;;;;;6.57;3.60;;;9.80;99.90;;;;;;5051155;28;20836;-69
2022/02/03 15:29:36;;;;;;;10.43;3.70;;;9.80;99.90;;;;;;5043263;28;20442;-69
2022/02/03 15:32:24;;;;;;;10.90;4.57;;;9.80;99.90;;;;;;5048268;28;20449;-69
2022/02/03 15:35:17;;;;;;;5.30;4.13;;;9.80;99.90;;;;;;5043119;28;20449;-69
2022/02/03 15:38:05;;;;;;;5.83;4.27;;;9.80;99.90;;;;;;5043694;28;20513;-70
2022/02/03 15:40:53;;;;;;;6.07;3.77;;;9.80;99.90;;;;;;5057751;28;20993;-70
2022/02/03 15:43:41;;;;;;;5.33;3.33;;;9.70;99.90;;;;;;5045526;28;20501;-70
2022/02/03 15:46:29;;;;;;;5.20;3.50;;;9.70;99.90;;;;;;5050445;28;20485;-70
2022/02/03 15:49:32;;;;;;;6.50;3.53;;;9.80;99.90;;;;;;5060169;28;20437;-70
2022/02/03 16:01:45;;;;;;;9.63;7.17;;;9.60;99.90;;;;;;5053830;28;20453;-70
2022/02/03 16:14:34;;;;;;;5.77;4.17;;;9.30;99.90;;;;;;5041363;28;20411;-70
2022/02/03 16:17:11;;;;;;;4.70;3.27;;;9.20;99.90;;;;;;5054710;28;20426;-70
2022/02/03 16:20:03;;;;;;;4.30;3.13;;;9.20;99.90;;;;;;5043712;28;20591;-70
2022/02/03 16:22:54;;;;;;;4.73;3.70;;;9.10;99.90;;;;;;5042279;28;20573;-70
2022/02/03 16:41:17;;;;;;;5.77;2.70;;;8.90;99.90;;;;;;5018282;28;20430;-71
2022/02/03 16:50:34;;;;;;;4.53;2.27;;;8.90;99.90;;;;;;4999989;28;20461;-71
2022/02/03 16:53:20;;;;;;;4.17;2.70;;;9.00;99.90;;;;;;5001181;28;20558;-72
2022/02/03 16:56:08;;;;;;;2.80;2.50;;;9.00;99.90;;;;;;5002857;28;20585;-71
2022/02/03 16:58:54;;;;;;;2.63;2.10;;;9.00;99.90;;;;;;5005911;28;20543;-72
2022/02/03 17:01:40;;;;;;;4.83;3.27;;;9.00;99.90;;;;;;5000748;28;20985;-72
2022/02/03 17:04:26;;;;;;;3.07;2.30;;;9.00;99.90;;;;;;5003612;28;20489;-72
2022/02/03 17:07:13;;;;;;;3.57;2.60;;;9.00;99.90;;;;;;4998893;28;20451;-72
2022/02/03 17:09:58;;;;;;;4.10;2.63;;;9.00;99.90;;;;;;5004098;28;20973;-72
2022/02/03 17:12:44;;;;;;;3.80;2.53;;;9.00;99.90;;;;;;5007790;28;20590;-73
2022/02/03 17:15:30;;;;;;;3.57;2.97;;;9.00;99.90;;;;;;5002697;28;20967;-72
2022/02/03 17:18:16;;;;;;;4.50;3.33;;;8.90;99.90;;;;;;5006216;28;20581;-72
2022/02/03 17:21:01;;;;;;;5.20;2.97;;;8.90;99.90;;;;;;5006169;28;20453;-73
2022/02/03 17:23:48;;;;;;;5.57;3.20;;;8.90;99.90;;;;;;5006989;28;20456;-73
2022/02/03 17:26:42;;;;;;;4.00;2.90;;;8.90;99.90;;;;;;5002678;28;20432;-72
2022/02/03 17:29:38;;;;;;;7.27;4.00;;;8.90;99.90;;;;;;4999913;28;20995;-74
2022/02/03 17:44:58;;;;;;;5.33;4.17;;;8.80;99.90;;;;;;5006388;28;20497;-73
2022/02/03 17:45:40;;;;;;;5.30;4.70;;;8.70;99.90;;;;;;5010006;28;20559;-71
2022/02/03 18:04:30;;;;;;;6.60;4.97;;;8.70;99.90;;;;;;5008748;28;20881;-72
2022/02/03 18:07:35;;;;;;;6.23;5.10;;;8.70;99.90;;;;;;5001541;28;20454;-72
2022/02/03 18:10:31;;;;;;;6.43;5.00;;;8.60;99.90;;;;;;5005083;28;20462;-72
2022/02/03 18:32:32;;;;;;;6.13;4.20;;;8.80;99.90;;;;;;4998635;28;20416;-72
2022/02/03 18:50:39;;;;;;;4.07;3.37;;;8.70;99.90;;;;;;5000011;28;20458;-73
2022/02/03 18:53:31;;;;;;;5.77;4.67;;;8.70;99.90;;;;;;5005933;28;21306;-73
2022/02/03 18:56:27;;;;;;;9.57;5.27;;;8.70;99.90;;;;;;5009366;28;20826;-72
2022/02/03 18:59:27;;;;;;;5.50;3.63;;;8.70;99.90;;;;;;4997022;28;20470;-73
2022/02/03 19:02:43;;;;;;;6.83;5.20;;;8.70;99.90;;;;;;5000279;28;20454;-72
2022/02/03 19:21:25;;;;;;;6.90;4.90;;;8.80;99.90;;;;;;4995423;28;20551;-73
2022/02/03 19:27:35;;;;;;;6.70;5.20;;;8.90;99.90;;;;;;4989576;28;21176;-73
2022/02/03 20:01:41;;;;;;;8.50;5.47;;;8.80;99.90;;;;;;5002468;28;20480;-72
2022/02/03 20:04:44;;;;;;;6.13;4.70;;;8.80;99.90;;;;;;5002711;28;20498;-72
2022/02/03 20:07:41;;;;;;;5.97;4.73;;;8.70;99.90;;;;;;5001947;28;20445;-72
2022/02/03 20:10:28;;;;;;;5.30;4.50;;;8.80;99.90;;;;;;5005304;28;20489;-72
2022/02/03 20:13:13;;;;;;;6.87;5.67;;;8.80;99.90;;;;;;5001131;28;20461;-72
2022/02/03 20:15:59;;;;;;;6.27;5.33;;;8.70;99.90;;;;;;4995407;28;20441;-72
2022/02/03 20:18:44;;;;;;;9.20;6.43;;;8.80;99.90;;;;;;4996127;28;20944;-72
2022/02/03 20:21:34;;;;;;;9.13;6.90;;;8.80;99.90;;;;;;5006496;28;20457;-72
2022/02/03 20:24:19;;;;;;;7.20;5.30;;;8.80;99.90;;;;;;5007139;28;20470;-71
2022/02/03 20:27:05;;;;;;;9.90;6.00;;;8.80;99.90;;;;;;5000404;28;20446;-73
2022/02/03 20:29:52;;;;;;;6.50;5.27;;;8.80;99.90;;;;;;4997133;28;20520;-72
2022/02/03 20:32:38;;;;;;;11.90;4.93;;;8.80;99.90;;;;;;5001713;28;20522;-72
2022/02/03 20:35:24;;;;;;;7.23;5.17;;;8.80;99.90;;;;;;5005965;28;20807;-72
2022/02/03 20:38:14;;;;;;;6.30;5.43;;;8.80;99.90;;;;;;5000626;28;20451;-73
2022/02/03 20:41:00;;;;;;;8.90;5.90;;;8.80;99.90;;;;;;5006712;28;20992;-72
2022/02/03 20:43:46;;;;;;;8.67;5.73;;;8.70;99.90;;;;;;5004879;28;20466;-73
2022/02/03 20:46:32;;;;;;;7.77;5.90;;;8.60;99.90;;;;;;5003841;28;20458;-73
2022/02/03 20:49:21;;;;;;;8.10;5.90;;;8.60;99.90;;;;;;5005079;28;20462;-72
2022/02/03 20:52:07;;;;;;;6.10;5.50;;;8.60;99.90;;;;;;4999069;28;20456;-72
2022/02/03 20:54:54;;;;;;;6.73;5.80;;;8.60;99.90;;;;;;4999941;28;20874;-72
2022/02/03 20:57:40;;;;;;;10.77;6.50;;;8.60;99.90;;;;;;5005061;28;20506;-71
2022/02/03 21:00:28;;;;;;;8.90;6.03;;;8.60;99.90;;;;;;5004965;28;20483;-72
2022/02/03 21:03:20;;;;;;;7.90;6.67;;;8.60;99.90;;;;;;5009702;28;21062;-71
2022/02/03 21:06:09;;;;;;;9.47;5.77;;;8.60;99.90;;;;;;5001133;28;20433;-71
2022/02/03 21:08:54;;;;;;;8.20;6.03;;;8.70;99.90;;;;;;4999978;28;20483;-71
2022/02/03 21:11:41;;;;;;;13.23;6.33;;;8.70;99.90;;;;;;4998180;28;21043;-72
2022/02/03 21:14:29;;;;;;;12.10;7.73;;;8.70;99.90;;;;;;5001656;28;20420;-71
2022/02/03 21:17:14;;;;;;;10.23;7.57;;;8.70;99.90;;;;;;5003386;28;20959;-72
2022/02/03 21:20:07;;;;;;;9.50;8.00;;;8.60;99.90;;;;;;4999293;28;20472;-73
2022/02/03 21:22:53;;;;;;;11.73;8.60;;;8.60;99.90;;;;;;5011825;28;20529;-71
2022/02/03 21:25:43;;;;;;;9.57;7.77;;;8.60;99.90;;;;;;5000500;28;20454;-74
2022/02/03 21:28:32;;;;;;;12.67;9.60;;;8.60;99.90;;;;;;5001509;28;20493;-72
2022/02/03 21:31:19;;;;;;;12.20;8.97;;;8.60;99.90;;;;;;4995947;28;20425;-72
2022/02/03 21:34:09;;;;;;;11.77;8.17;;;8.60;99.90;;;;;;5006081;28;20459;-72
2022/02/03 21:36:56;;;;;;;11.63;7.67;;;8.50;99.90;;;;;;5004138;28;20462;-72
2022/02/03 21:39:42;;;;;;;11.47;8.70;;;8.60;99.90;;;;;;5006969;28;20520;-71
2022/02/03 21:42:28;;;;;;;11.80;8.30;;;8.40;99.90;;;;;;5008253;28;20546;-72
2022/02/03 21:45:17;;;;;;;10.60;9.10;;;8.40;99.90;;;;;;5000934;28;20438;-72
2022/02/03 21:48:04;;;;;;;11.97;9.00;;;8.30;99.90;;;;;;5008360;28;20524;-72
2022/02/03 21:50:50;;;;;;;11.53;9.13;;;8.30;99.90;;;;;;5000617;28;20469;-72
2022/02/03 21:53:36;;;;;;;12.03;8.93;;;8.30;99.90;;;;;;4996960;28;20448;-72
2022/02/03 21:56:22;;;;;;;11.57;9.00;;;8.40;99.90;;;;;;5004082;28;20874;-72
2022/02/03 21:59:08;;;;;;;11.60;8.40;;;8.40;99.90;;;;;;5001703;28;20466;-73
2022/02/03 22:01:55;;;;;;;13.80;9.80;;;8.30;99.90;;;;;;5003964;28;21286;-73
2022/02/03 22:04:41;;;;;;;12.13;8.93;;;8.30;99.90;;;;;;5012949;28;20427;-72
2022/02/03 22:07:26;;;;;;;15.40;11.03;;;8.30;99.90;;;;;;4995527;28;20958;-72
2022/02/03 22:10:13;;;;;;;14.50;10.30;;;8.30;99.90;;;;;;5003095;28;20462;-72
2022/02/03 22:12:59;;;;;;;13.70;8.97;;;8.30;99.90;;;;;;5000280;28;20450;-73